createdAt,value
2023-12-11T00:00:17.130Z,13.53
2023-12-11T00:02:45.856Z,13.51
2023-12-11T00:05:16.067Z,13.51
2023-12-11T00:07:42.845Z,13.50
2023-12-11T00:10:09.994Z,13.50
2023-12-11T00:12:37.871Z,13.50
2023-12-11T00:15:04.953Z,13.50
2023-12-11T00:17:34.176Z,13.50
2023-12-11T00:20:03.694Z,13.50
2023-12-11T00:22:30.514Z,13.49
2023-12-11T00:24:59.534Z,13.48
2023-12-11T00:27:29.583Z,13.47
2023-12-11T00:29:56.656Z,13.48
2023-12-11T00:32:28.644Z,13.46
2023-12-11T00:34:55.596Z,13.47
2023-12-11T00:37:24.802Z,13.47
2023-12-11T00:39:53.921Z,13.47
2023-12-11T00:42:20.622Z,13.46
2023-12-11T00:44:47.252Z,13.45
2023-12-11T00:47:13.927Z,13.46
2023-12-11T00:49:40.685Z,13.45
2023-12-11T00:52:09.976Z,13.43
2023-12-11T00:54:36.700Z,13.43
2023-12-11T00:57:03.473Z,13.42
2023-12-11T00:59:30.186Z,13.41
2023-12-11T01:01:59.277Z,13.40
2023-12-11T01:04:28.288Z,13.40
2023-12-11T01:06:55.053Z,13.39
2023-12-11T01:09:21.750Z,13.39
2023-12-11T01:11:48.464Z,13.38
2023-12-11T01:14:17.310Z,13.37
2023-12-11T01:16:44.105Z,13.38
2023-12-11T01:19:10.938Z,13.37
2023-12-11T01:21:37.721Z,13.36
2023-12-11T01:24:09.184Z,13.34
2023-12-11T01:26:35.910Z,13.35
2023-12-11T01:29:02.514Z,13.32
2023-12-11T01:31:29.131Z,13.34
2023-12-11T01:34:00.651Z,13.32
2023-12-11T01:36:27.350Z,13.31
2023-12-11T01:38:54.865Z,13.30
2023-12-11T01:41:23.826Z,13.29
2023-12-11T01:43:56.782Z,13.30
2023-12-11T01:46:24.944Z,13.30
2023-12-11T01:48:52.866Z,13.30
2023-12-11T01:51:20.223Z,13.30
2023-12-11T01:53:50.808Z,13.29
2023-12-11T01:56:18.808Z,13.28
2023-12-11T01:58:46.774Z,13.28
2023-12-11T02:01:15.668Z,13.27
2023-12-11T02:03:42.963Z,13.27
2023-12-11T02:06:09.717Z,13.26
2023-12-11T02:08:41.109Z,13.24
2023-12-11T02:11:09.979Z,13.23
2023-12-11T02:13:36.922Z,13.23
2023-12-11T02:16:03.864Z,13.23
2023-12-11T02:18:30.725Z,13.22
2023-12-11T02:20:57.551Z,13.22
2023-12-11T02:23:49.754Z,13.21
2023-12-11T02:26:18.442Z,13.20
2023-12-11T02:28:45.740Z,13.19
2023-12-11T02:31:15.113Z,13.18
2023-12-11T02:33:42.463Z,13.17
2023-12-11T02:36:11.907Z,13.14
2023-12-11T02:38:38.811Z,13.13
2023-12-11T02:41:05.860Z,13.13
2023-12-11T02:43:35.295Z,13.12
2023-12-11T02:46:04.907Z,13.11
2023-12-11T02:48:32.731Z,13.11
2023-12-11T02:51:04.247Z,13.10
2023-12-11T02:53:31.090Z,13.09
2023-12-11T02:55:57.793Z,13.09
2023-12-11T02:58:26.824Z,13.07
2023-12-11T03:00:53.765Z,13.06
2023-12-11T03:03:22.790Z,13.06
2023-12-11T03:05:49.516Z,13.04
2023-12-11T03:08:16.176Z,13.05
2023-12-11T03:10:42.902Z,13.04
2023-12-11T03:13:09.741Z,13.04
2023-12-11T03:15:36.645Z,13.03
2023-12-11T03:18:03.469Z,13.04
2023-12-11T03:20:30.202Z,13.04
2023-12-11T03:22:56.914Z,13.02
2023-12-11T03:25:23.652Z,13.00
2023-12-11T03:27:50.330Z,13.00
2023-12-11T03:30:19.377Z,13.00
2023-12-11T03:32:46.200Z,12.98
2023-12-11T03:35:12.912Z,12.97
2023-12-11T03:37:41.773Z,12.95
2023-12-11T03:40:08.924Z,12.93
2023-12-11T03:42:35.647Z,12.94
2023-12-11T03:45:02.376Z,12.93
2023-12-11T03:47:31.499Z,12.91
2023-12-11T03:50:02.981Z,12.91
2023-12-11T03:52:32.022Z,12.90
2023-12-11T03:54:59.174Z,12.90
2023-12-11T03:57:25.823Z,12.88
2023-12-11T03:59:54.804Z,12.89
2023-12-11T04:02:23.961Z,12.88
2023-12-11T04:04:50.870Z,12.87
2023-12-11T04:07:17.739Z,12.87
2023-12-11T04:09:44.487Z,12.86
2023-12-11T04:12:11.270Z,12.85
2023-12-11T04:14:37.917Z,12.82
2023-12-11T04:17:05.447Z,12.84
2023-12-11T04:19:34.342Z,12.84
2023-12-11T04:22:01.093Z,12.81
2023-12-11T04:24:27.715Z,12.81
2023-12-11T04:26:54.367Z,12.83
2023-12-11T04:29:21.057Z,12.83
2023-12-11T04:31:47.741Z,12.81
2023-12-11T04:34:14.512Z,12.80
2023-12-11T04:36:49.595Z,12.80
2023-12-11T04:39:18.787Z,12.80
2023-12-11T04:41:47.639Z,12.79
2023-12-11T04:44:14.351Z,12.79
2023-12-11T04:46:40.987Z,12.80
2023-12-11T04:49:10.026Z,12.79
2023-12-11T04:51:36.785Z,12.79
2023-12-11T04:54:08.972Z,12.77
2023-12-11T04:56:39.310Z,12.76
2023-12-11T04:59:06.061Z,12.76
2023-12-11T05:01:34.890Z,12.73
2023-12-11T05:04:03.998Z,12.72
2023-12-11T05:06:30.809Z,12.70
2023-12-11T05:08:59.912Z,12.68
2023-12-11T05:11:26.554Z,12.67
2023-12-11T05:13:55.993Z,12.65
2023-12-11T05:16:25.854Z,12.63
2023-12-11T05:18:54.203Z,12.61
2023-12-11T05:21:20.908Z,12.60
2023-12-11T05:23:47.591Z,12.60
2023-12-11T05:26:20.508Z,12.59
2023-12-11T05:28:48.763Z,12.58
2023-12-11T05:31:18.769Z,12.57
2023-12-11T05:33:45.750Z,12.56
2023-12-11T05:36:12.564Z,12.56
2023-12-11T05:38:39.391Z,12.58
2023-12-11T05:41:06.418Z,12.57
2023-12-11T05:43:33.300Z,12.59
2023-12-11T05:46:00.027Z,12.59
2023-12-11T05:48:26.782Z,12.56
2023-12-11T05:50:53.416Z,12.55
2023-12-11T05:53:22.281Z,12.57
2023-12-11T05:55:51.259Z,12.56
2023-12-11T05:58:20.372Z,12.56
2023-12-11T06:00:47.609Z,12.54
2023-12-11T06:03:14.422Z,12.54
2023-12-11T06:05:43.707Z,12.50
2023-12-11T06:08:10.549Z,12.49
2023-12-11T06:10:37.194Z,12.45
2023-12-11T06:13:03.942Z,12.42
2023-12-11T06:15:32.812Z,12.38
2023-12-11T06:18:02.209Z,12.39
2023-12-11T06:20:28.946Z,12.38
2023-12-11T06:22:55.653Z,12.35
2023-12-11T06:25:24.797Z,12.33
2023-12-11T06:27:53.878Z,12.30
2023-12-11T06:30:20.619Z,12.30
2023-12-11T06:32:49.593Z,12.28
2023-12-11T06:35:16.285Z,12.26
2023-12-11T06:37:42.911Z,12.24
2023-12-11T06:40:12.104Z,12.23
2023-12-11T06:42:39.425Z,12.21
2023-12-11T06:45:11.751Z,12.19
2023-12-11T06:47:38.533Z,12.18
2023-12-11T06:50:05.981Z,12.17
2023-12-11T06:52:32.788Z,12.15
2023-12-11T06:54:59.495Z,12.13
2023-12-11T06:57:26.224Z,12.12
2023-12-11T06:59:53.036Z,12.11
2023-12-11T07:02:19.926Z,12.09
2023-12-11T07:04:46.811Z,12.07
2023-12-11T07:07:13.685Z,12.04
2023-12-11T07:09:40.447Z,12.02
2023-12-11T07:12:09.945Z,11.98
2023-12-11T07:14:36.584Z,11.97
2023-12-11T07:17:05.533Z,11.95
2023-12-11T07:19:32.300Z,11.94
2023-12-11T07:22:01.216Z,11.93
2023-12-11T07:24:27.885Z,11.90
2023-12-11T07:26:57.252Z,11.89
2023-12-11T07:29:24.531Z,11.87
2023-12-11T07:31:54.228Z,11.85
2023-12-11T07:34:23.293Z,11.85
2023-12-11T07:36:53.395Z,11.83
2023-12-11T07:39:20.145Z,11.80
2023-12-11T07:41:51.544Z,11.79
2023-12-11T07:44:20.472Z,11.78
2023-12-11T07:46:51.886Z,11.79
2023-12-11T07:49:18.680Z,11.78
2023-12-11T07:51:45.437Z,11.79
2023-12-11T07:54:14.697Z,11.86
2023-12-11T07:56:42.168Z,11.95
2023-12-11T07:59:11.620Z,11.81
2023-12-11T08:01:40.693Z,11.76
2023-12-11T08:04:07.553Z,11.75
2023-12-11T08:06:44.941Z,11.73
2023-12-11T08:09:12.656Z,11.72
2023-12-11T08:11:39.424Z,11.71
2023-12-11T08:14:09.026Z,11.69
2023-12-11T08:16:35.727Z,11.67
2023-12-11T08:19:04.686Z,11.63
2023-12-11T08:21:31.907Z,11.65
2023-12-11T08:23:58.618Z,11.64
2023-12-11T08:26:25.521Z,11.64
2023-12-11T08:28:52.350Z,11.64
2023-12-11T08:31:22.047Z,11.66
2023-12-11T08:33:48.831Z,11.66
2023-12-11T08:36:20.039Z,11.67
2023-12-11T08:38:46.785Z,11.69
2023-12-11T08:41:13.587Z,11.70
2023-12-11T08:43:42.543Z,11.69
2023-12-11T08:46:09.266Z,11.69
2023-12-11T08:48:36.171Z,11.68
2023-12-11T08:51:04.118Z,11.68
2023-12-11T08:53:35.574Z,11.65
2023-12-11T08:56:02.673Z,11.67
2023-12-11T08:58:29.518Z,11.65
2023-12-11T09:00:56.261Z,11.65
2023-12-11T09:03:23.022Z,11.67
2023-12-11T09:05:49.857Z,11.66
2023-12-11T09:08:16.625Z,11.65
2023-12-11T09:10:43.280Z,11.68
2023-12-11T09:13:09.994Z,11.67
2023-12-11T09:15:36.869Z,11.67
2023-12-11T09:18:03.799Z,11.66
2023-12-11T09:20:30.712Z,11.66
2023-12-11T09:22:57.585Z,11.67
2023-12-11T09:25:24.351Z,11.74
2023-12-11T09:27:51.099Z,11.84
2023-12-11T09:30:22.340Z,12.02
2023-12-11T09:32:51.873Z,12.20
2023-12-11T09:35:18.784Z,12.29
2023-12-11T09:37:46.967Z,12.32
2023-12-11T09:40:16.542Z,12.34
2023-12-11T09:42:44.719Z,12.36
2023-12-11T09:45:12.948Z,12.37
2023-12-11T09:47:53.432Z,12.39
2023-12-11T09:50:23.521Z,12.39
2023-12-11T09:52:53.253Z,12.38
2023-12-11T09:55:20.088Z,12.37
2023-12-11T09:57:47.975Z,12.32
2023-12-11T10:00:18.266Z,12.30
2023-12-11T10:02:50.789Z,12.29
2023-12-11T10:05:26.037Z,12.25
2023-12-11T10:07:55.121Z,12.26
2023-12-11T10:10:27.312Z,12.25
2023-12-11T10:12:55.796Z,12.24
2023-12-11T10:15:22.498Z,12.25
2023-12-11T10:18:13.941Z,12.27
2023-12-11T10:20:46.509Z,12.43
2023-12-11T10:23:23.176Z,12.64
2023-12-11T10:25:51.072Z,12.81
2023-12-11T10:28:20.442Z,12.93
2023-12-11T10:30:53.902Z,13.11
2023-12-11T10:33:22.399Z,13.34
2023-12-11T10:35:50.239Z,13.60
2023-12-11T10:38:27.157Z,13.89
2023-12-11T10:40:54.912Z,14.16
2023-12-11T10:43:21.904Z,14.39
2023-12-11T10:45:51.599Z,14.63
2023-12-11T10:48:20.819Z,14.80
2023-12-11T10:50:48.801Z,14.98
2023-12-11T10:53:16.630Z,15.11
2023-12-11T10:55:47.901Z,15.25
2023-12-11T10:58:14.997Z,15.36
2023-12-11T11:00:42.209Z,15.41
2023-12-11T11:03:13.936Z,15.50
2023-12-11T11:05:44.699Z,15.55
2023-12-11T11:08:56.401Z,15.55
2023-12-11T11:11:34.492Z,15.57
2023-12-11T11:14:21.489Z,15.60
2023-12-11T11:17:05.460Z,15.65
2023-12-11T11:19:32.334Z,15.76
2023-12-11T11:22:04.300Z,15.84
2023-12-11T11:24:39.491Z,15.91
2023-12-11T11:27:42.834Z,15.99
2023-12-11T11:30:13.475Z,16.02
2023-12-11T11:32:56.783Z,16.06
2023-12-11T11:35:48.222Z,16.11
2023-12-11T11:38:16.854Z,16.11
2023-12-11T11:40:46.775Z,16.05
2023-12-11T11:43:14.468Z,15.98
2023-12-11T11:45:42.358Z,15.91
2023-12-11T11:48:09.290Z,15.80
2023-12-11T11:50:36.507Z,15.68
2023-12-11T11:53:13.930Z,15.55
2023-12-11T11:55:43.233Z,15.43
2023-12-11T11:58:15.009Z,15.30
2023-12-11T12:00:42.457Z,15.21
2023-12-11T12:03:13.092Z,15.10
2023-12-11T12:05:56.201Z,15.03
2023-12-11T12:08:23.238Z,14.97
2023-12-11T12:10:49.987Z,14.88
2023-12-11T12:13:17.030Z,14.79
2023-12-11T12:15:45.299Z,14.72
2023-12-11T12:18:13.589Z,14.64
2023-12-11T12:20:40.786Z,14.58
2023-12-11T12:23:07.950Z,14.53
2023-12-11T12:25:35.803Z,14.49
2023-12-11T12:28:07.787Z,14.41
2023-12-11T12:30:35.689Z,14.35
2023-12-11T12:33:05.179Z,14.28
2023-12-11T12:35:36.410Z,14.19
2023-12-11T12:38:03.823Z,14.14
2023-12-11T12:40:35.008Z,14.10
2023-12-11T12:43:11.211Z,14.08
2023-12-11T12:45:38.553Z,14.05
2023-12-11T12:48:10.153Z,14.00
2023-12-11T12:50:37.373Z,13.95
2023-12-11T12:53:19.107Z,13.95
2023-12-11T12:55:48.518Z,13.93
2023-12-11T12:58:17.017Z,13.90
2023-12-11T13:00:47.940Z,13.88
2023-12-11T13:03:21.886Z,13.84
2023-12-11T13:05:49.893Z,13.82
2023-12-11T13:08:16.688Z,13.81
2023-12-11T13:10:55.921Z,13.79
2023-12-11T13:13:28.058Z,13.75
2023-12-11T13:15:55.669Z,13.77
2023-12-11T13:18:25.986Z,13.76
2023-12-11T13:20:52.972Z,13.77
2023-12-11T13:23:19.905Z,13.78
2023-12-11T13:25:46.679Z,13.81
2023-12-11T13:28:13.371Z,13.83
2023-12-11T13:30:43.345Z,13.85
2023-12-11T13:33:10.507Z,13.85
2023-12-11T13:35:37.998Z,13.84
2023-12-11T13:38:04.833Z,13.87
2023-12-11T13:40:31.627Z,13.87
2023-12-11T13:43:00.558Z,13.88
2023-12-11T13:45:28.915Z,13.92
2023-12-11T13:47:58.015Z,13.94
2023-12-11T13:50:24.836Z,13.98
2023-12-11T13:52:51.572Z,14.00
2023-12-11T13:55:18.359Z,14.03
2023-12-11T13:57:45.013Z,14.01
2023-12-11T14:00:16.448Z,14.02
2023-12-11T14:03:00.367Z,14.02
2023-12-11T14:05:31.118Z,14.01
2023-12-11T14:07:58.381Z,13.98
2023-12-11T14:10:25.271Z,13.98
2023-12-11T14:12:55.340Z,13.97
2023-12-11T14:15:22.007Z,13.96
2023-12-11T14:17:48.747Z,13.97
2023-12-11T14:20:15.609Z,13.96
2023-12-11T14:22:42.302Z,13.94
2023-12-11T14:25:11.495Z,13.96
2023-12-11T14:27:38.308Z,13.96
2023-12-11T14:30:05.971Z,13.94
2023-12-11T14:32:32.668Z,13.90
2023-12-11T14:34:59.372Z,13.85
2023-12-11T14:37:26.166Z,13.84
2023-12-11T14:39:54.221Z,13.81
2023-12-11T14:42:24.825Z,13.80
2023-12-11T14:44:51.559Z,13.77
2023-12-11T14:47:22.024Z,13.74
2023-12-11T14:49:48.834Z,13.70
2023-12-11T14:52:18.525Z,13.69
2023-12-11T14:54:45.266Z,13.65
2023-12-11T14:57:11.993Z,13.62
2023-12-11T14:59:40.344Z,13.58
2023-12-11T15:02:07.236Z,13.56
2023-12-11T15:04:34.093Z,13.54
2023-12-11T15:07:00.949Z,13.51
2023-12-11T15:09:27.646Z,13.48
2023-12-11T15:11:54.325Z,13.43
2023-12-11T15:14:21.245Z,13.35
2023-12-11T15:16:50.805Z,13.30
2023-12-11T15:19:17.758Z,13.22
2023-12-11T15:21:44.613Z,13.19
2023-12-11T15:24:13.760Z,13.15
2023-12-11T15:26:41.158Z,13.12
2023-12-11T15:29:08.654Z,13.09
2023-12-11T15:31:35.511Z,13.05
2023-12-11T15:34:02.448Z,13.03
2023-12-11T15:36:29.202Z,13.01
2023-12-11T15:38:55.846Z,12.97
2023-12-11T15:41:22.830Z,12.93
2023-12-11T15:43:49.520Z,12.89
2023-12-11T15:46:19.260Z,12.83
2023-12-11T15:48:48.887Z,12.81
2023-12-11T15:51:18.662Z,12.77
2023-12-11T15:53:46.601Z,12.74
2023-12-11T15:56:16.745Z,12.70
2023-12-11T15:58:45.948Z,12.67
2023-12-11T16:01:12.937Z,12.63
2023-12-11T16:03:40.085Z,12.59
2023-12-11T16:06:07.826Z,12.57
2023-12-11T16:08:34.714Z,12.54
2023-12-11T16:11:01.611Z,12.51
2023-12-11T16:13:28.242Z,12.47
2023-12-11T16:15:56.376Z,12.44
2023-12-11T16:18:23.479Z,12.41
2023-12-11T16:20:50.206Z,12.37
2023-12-11T16:23:16.965Z,12.32
2023-12-11T16:25:51.154Z,12.28
2023-12-11T16:28:26.148Z,12.26
2023-12-11T16:30:52.865Z,12.23
2023-12-11T16:33:19.684Z,12.20
2023-12-11T16:35:46.488Z,12.17
2023-12-11T16:38:13.111Z,12.10
2023-12-11T16:40:45.303Z,12.07
2023-12-11T16:43:12.037Z,12.03
2023-12-11T16:45:38.838Z,11.99
2023-12-11T16:48:08.114Z,12.00
2023-12-11T16:50:34.853Z,12.33
2023-12-11T16:53:05.596Z,12.60
2023-12-11T16:55:32.342Z,12.88
2023-12-11T16:57:59.008Z,13.09
2023-12-11T17:00:28.894Z,13.25
2023-12-11T17:02:56.250Z,13.36
2023-12-11T17:05:23.096Z,13.46
2023-12-11T17:07:49.843Z,13.55
2023-12-11T17:10:16.520Z,13.60
2023-12-11T17:12:47.021Z,13.65
2023-12-11T17:15:15.944Z,13.69
2023-12-11T17:17:47.597Z,13.71
2023-12-11T17:20:14.269Z,13.74
2023-12-11T17:22:40.893Z,13.74
2023-12-11T17:25:07.954Z,13.75
2023-12-11T17:27:34.967Z,13.87
2023-12-11T17:30:03.837Z,14.06
2023-12-11T17:32:31.993Z,14.30
2023-12-11T17:34:59.311Z,14.48
2023-12-11T17:37:26.061Z,14.65
2023-12-11T17:39:54.914Z,14.64
2023-12-11T17:42:21.769Z,14.57
2023-12-11T17:44:48.538Z,14.54
2023-12-11T17:47:15.305Z,14.24
2023-12-11T17:49:42.264Z,13.94
2023-12-11T17:52:13.877Z,13.69
2023-12-11T17:54:43.813Z,13.48
2023-12-11T17:57:10.862Z,13.33
2023-12-11T17:59:42.195Z,13.24
2023-12-11T18:02:09.141Z,13.55
2023-12-11T18:04:39.794Z,14.15
2023-12-11T18:07:06.707Z,14.04
2023-12-11T18:09:38.757Z,13.78
2023-12-11T18:12:09.971Z,13.54
2023-12-11T18:14:36.617Z,13.37
2023-12-11T18:17:08.880Z,13.20
2023-12-11T18:19:35.633Z,13.09
2023-12-11T18:22:07.136Z,12.97
2023-12-11T18:24:34.581Z,12.89
2023-12-11T18:27:03.778Z,12.83
2023-12-11T18:29:34.927Z,12.77
2023-12-11T18:32:08.901Z,12.72
2023-12-11T18:34:43.239Z,12.69
2023-12-11T18:37:18.620Z,12.67
2023-12-11T18:39:47.679Z,12.63
2023-12-11T18:42:16.414Z,12.62
2023-12-11T18:44:43.658Z,12.45
2023-12-11T18:47:10.316Z,12.37
2023-12-11T18:49:46.060Z,12.30
2023-12-11T18:52:15.735Z,12.24
2023-12-11T18:54:44.747Z,12.18
2023-12-11T18:57:13.119Z,12.16
2023-12-11T18:59:39.966Z,12.14
2023-12-11T19:02:14.180Z,12.08
2023-12-11T19:04:41.100Z,12.05
2023-12-11T19:07:07.873Z,12.01
2023-12-11T19:09:34.545Z,11.97
2023-12-11T19:12:01.776Z,11.94
2023-12-11T19:14:28.415Z,11.91
2023-12-11T19:16:57.669Z,11.88
2023-12-11T19:19:24.410Z,11.86
2023-12-11T19:21:53.078Z,11.83
2023-12-11T19:24:22.134Z,11.82
2023-12-11T19:26:51.250Z,11.81
2023-12-11T19:29:18.752Z,11.79
2023-12-11T19:31:45.475Z,11.77
2023-12-11T19:34:16.793Z,11.76
2023-12-11T19:36:43.616Z,11.83
2023-12-11T19:39:11.096Z,11.90
2023-12-11T19:41:37.749Z,11.93
2023-12-11T19:44:06.872Z,11.94
2023-12-11T19:46:33.562Z,11.94
2023-12-11T19:49:02.775Z,11.95
2023-12-11T19:51:30.449Z,11.94
2023-12-11T19:53:57.744Z,11.93
2023-12-11T19:56:26.923Z,11.93
2023-12-11T19:58:53.632Z,11.93
2023-12-11T20:01:29.918Z,11.90
2023-12-11T20:03:56.828Z,11.88
2023-12-11T20:06:32.569Z,11.87
2023-12-11T20:08:59.262Z,11.87
2023-12-11T20:11:27.457Z,11.87
2023-12-11T20:13:57.181Z,11.88
2023-12-11T20:16:26.416Z,11.88
2023-12-11T20:18:54.084Z,11.89
2023-12-11T20:21:20.874Z,11.89
2023-12-11T20:23:50.723Z,11.90
2023-12-11T20:26:23.625Z,11.91
2023-12-11T20:28:50.287Z,11.91
2023-12-11T20:31:20.219Z,11.89
2023-12-11T20:33:47.606Z,11.87
2023-12-11T20:36:22.233Z,11.87
2023-12-11T20:38:53.705Z,11.86
2023-12-11T20:41:25.181Z,11.86
2023-12-11T20:43:56.686Z,11.86
2023-12-11T20:46:25.199Z,11.86
2023-12-11T20:48:55.545Z,11.86
2023-12-11T20:51:25.421Z,11.86
2023-12-11T20:53:54.717Z,11.86
2023-12-11T20:56:22.943Z,11.85
2023-12-11T20:58:55.186Z,11.87
2023-12-11T21:01:30.985Z,11.87
2023-12-11T21:03:59.047Z,11.87
2023-12-11T21:06:25.858Z,11.88
2023-12-11T21:09:00.426Z,11.87
2023-12-11T21:11:30.805Z,11.88
2023-12-11T21:14:00.121Z,11.88
2023-12-11T21:16:29.046Z,11.88
2023-12-11T21:18:58.084Z,11.87
2023-12-11T21:21:25.709Z,11.87
2023-12-11T21:23:55.111Z,11.86
2023-12-11T21:26:24.106Z,11.86
2023-12-11T21:28:53.336Z,11.86
2023-12-11T21:31:28.183Z,11.86
2023-12-11T21:33:56.118Z,11.85
2023-12-11T21:36:28.778Z,11.84
2023-12-11T21:38:55.583Z,11.84
2023-12-11T21:41:24.663Z,11.84
2023-12-11T21:43:54.404Z,11.84
2023-12-11T21:46:21.486Z,11.84
2023-12-11T21:48:51.054Z,11.85
2023-12-11T21:51:20.233Z,11.85
2023-12-11T21:53:48.118Z,11.85
2023-12-11T21:56:16.995Z,11.89
2023-12-11T21:58:43.811Z,11.94
2023-12-11T22:01:10.896Z,11.94
2023-12-11T22:03:40.209Z,11.94
2023-12-11T22:06:07.268Z,11.93
2023-12-11T22:08:33.894Z,11.92
2023-12-11T22:11:02.741Z,11.90
2023-12-11T22:13:29.514Z,11.90
2023-12-11T22:15:58.864Z,11.90
2023-12-11T22:18:25.590Z,11.89
2023-12-11T22:20:52.258Z,11.90
2023-12-11T22:23:18.944Z,11.90
2023-12-11T22:25:45.554Z,11.90
2023-12-11T22:28:12.293Z,11.98
2023-12-11T22:30:41.587Z,12.57
2023-12-11T22:33:08.341Z,12.96
2023-12-11T22:35:37.193Z,13.20
2023-12-11T22:38:06.915Z,13.37
2023-12-11T22:40:36.842Z,13.50
2023-12-11T22:43:03.908Z,13.61
2023-12-11T22:45:30.547Z,13.69
2023-12-11T22:47:57.211Z,13.73
2023-12-11T22:50:23.918Z,13.75
2023-12-11T22:52:53.178Z,13.80
2023-12-11T22:55:19.782Z,13.88
2023-12-11T22:57:50.439Z,13.94
2023-12-11T23:00:23.813Z,13.94
2023-12-11T23:02:50.473Z,13.90
2023-12-11T23:05:19.854Z,13.88
2023-12-11T23:07:49.329Z,13.87
2023-12-11T23:10:16.125Z,13.85
2023-12-11T23:12:42.848Z,13.86
2023-12-11T23:15:10.664Z,13.86
2023-12-11T23:17:37.617Z,13.85
2023-12-11T23:20:04.764Z,13.92
2023-12-11T23:22:31.425Z,13.97
2023-12-11T23:25:00.787Z,14.01
2023-12-11T23:27:27.513Z,14.03
2023-12-11T23:29:57.867Z,14.07
2023-12-11T23:32:33.229Z,14.09
2023-12-11T23:35:02.118Z,14.14
2023-12-11T23:37:29.256Z,14.15
2023-12-11T23:39:58.580Z,14.11
2023-12-11T23:42:27.576Z,14.09
2023-12-11T23:44:54.229Z,14.07
2023-12-11T23:47:23.059Z,14.06
2023-12-11T23:49:52.039Z,14.05
2023-12-11T23:52:21.097Z,13.99
2023-12-11T23:54:47.863Z,13.85
2023-12-11T23:57:14.506Z,13.88
2023-12-11T23:59:43.381Z,13.72
